sensor_id;sensor_type;location;lat;lon;timestamp;pressure;altitude;pressure_sealevel;temperature;humidity
17450;BME280;8842;51.244;7.102;2022-12-18T00:03:51;100586.27;;;-1.04;89.41
17450;BME280;8842;51.244;7.102;2022-12-18T00:08:57;100575.40;;;-1.05;87.90
17450;BME280;8842;51.244;7.102;2022-12-18T00:19:16;100566.92;;;-1.21;89.58
17450;BME280;8842;51.244;7.102;2022-12-18T00:29:31;100581.03;;;-1.03;87.86
17450;BME280;8842;51.244;7.102;2022-12-18T00:39:49;100587.53;;;-1.01;88.59
17450;BME280;8842;51.244;7.102;2022-12-18T00:50:08;100582.90;;;-1.14;91.06
17450;BME280;8842;51.244;7.102;2022-12-18T01:00:24;100564.97;;;-1.05;92.57
17450;BME280;8842;51.244;7.102;2022-12-18T01:05:28;100571.62;;;-1.13;93.26
17450;BME280;8842;51.244;7.102;2022-12-18T01:15:48;100568.59;;;-0.83;94.48
17450;BME280;8842;51.244;7.102;2022-12-18T01:26:06;100566.84;;;-0.81;92.78
17450;BME280;8842;51.244;7.102;2022-12-18T01:36:29;100582.77;;;-1.03;94.55
17450;BME280;8842;51.244;7.102;2022-12-18T01:46:44;100585.56;;;-0.84;94.40
17450;BME280;8842;51.244;7.102;2022-12-18T01:56:59;100580.84;;;-0.88;93.82
17450;BME280;8842;51.244;7.102;2022-12-18T02:02:04;100568.27;;;-0.90;93.56
17450;BME280;8842;51.244;7.102;2022-12-18T02:07:11;100575.98;;;-0.82;93.32
17450;BME280;8842;51.244;7.102;2022-12-18T02:17:31;100578.08;;;-0.76;93.80
17450;BME280;8842;51.244;7.102;2022-12-18T02:27:49;100592.75;;;-0.69;92.05
17450;BME280;8842;51.244;7.102;2022-12-18T02:38:05;100564.55;;;-0.74;93.63
17450;BME280;8842;51.244;7.102;2022-12-18T02:48:23;100556.99;;;-0.62;92.16
17450;BME280;8842;51.244;7.102;2022-12-18T02:58:45;100552.76;;;-0.69;90.82
17450;BME280;8842;51.244;7.102;2022-12-18T03:09:07;100554.25;;;-0.53;90.51
17450;BME280;8842;51.244;7.102;2022-12-18T03:30:00;100549.20;;;-0.95;92.42
17450;BME280;8842;51.244;7.102;2022-12-18T03:40:25;100540.86;;;-0.88;92.33
17450;BME280;8842;51.244;7.102;2022-12-18T03:55:55;100528.97;;;-1.07;93.61
17450;BME280;8842;51.244;7.102;2022-12-18T04:06:14;100534.18;;;-0.76;92.66
17450;BME280;8842;51.244;7.102;2022-12-18T04:16:30;100521.38;;;-0.63;90.46
17450;BME280;8842;51.244;7.102;2022-12-18T04:26:46;100528.09;;;-0.77;91.88
17450;BME280;8842;51.244;7.102;2022-12-18T04:37:01;100527.16;;;-0.43;88.19
17450;BME280;8842;51.244;7.102;2022-12-18T04:47:16;100520.25;;;-0.47;88.62
17450;BME280;8842;51.244;7.102;2022-12-18T04:57:31;100511.41;;;-0.37;86.76
17450;BME280;8842;51.244;7.102;2022-12-18T05:07:47;100507.27;;;-0.25;85.50
17450;BME280;8842;51.244;7.102;2022-12-18T05:18:03;100491.63;;;-0.52;87.01
17450;BME280;8842;51.244;7.102;2022-12-18T05:28:19;100483.86;;;-0.56;84.89
17450;BME280;8842;51.244;7.102;2022-12-18T05:38:36;100491.12;;;-0.47;85.95
17450;BME280;8842;51.244;7.102;2022-12-18T05:43:41;100486.28;;;-0.44;83.20
17450;BME280;8842;51.244;7.102;2022-12-18T05:48:45;100484.64;;;-0.50;83.81
17450;BME280;8842;51.244;7.102;2022-12-18T05:59:01;100502.09;;;-0.28;81.06
17450;BME280;8842;51.244;7.102;2022-12-18T06:09:17;100499.06;;;-0.54;82.76
17450;BME280;8842;51.244;7.102;2022-12-18T06:19:33;100533.73;;;-0.46;81.54
17450;BME280;8842;51.244;7.102;2022-12-18T06:29:49;100558.86;;;-0.41;81.29
17450;BME280;8842;51.244;7.102;2022-12-18T06:40:07;100552.98;;;-0.28;80.00
17450;BME280;8842;51.244;7.102;2022-12-18T06:50:23;100539.67;;;-0.38;80.01
17450;BME280;8842;51.244;7.102;2022-12-18T07:00:38;100533.03;;;-0.31;81.01
17450;BME280;8842;51.244;7.102;2022-12-18T07:10:56;100516.28;;;-0.18;76.45
17450;BME280;8842;51.244;7.102;2022-12-18T07:26:39;100512.98;;;-0.27;75.37
17450;BME280;8842;51.244;7.102;2022-12-18T07:36:55;100506.30;;;-0.18;75.01
17450;BME280;8842;51.244;7.102;2022-12-18T07:47:11;100472.14;;;-0.31;74.39
17450;BME280;8842;51.244;7.102;2022-12-18T07:57:30;100471.06;;;-0.18;74.42
17450;BME280;8842;51.244;7.102;2022-12-18T08:07:45;100471.98;;;-0.22;74.04
17450;BME280;8842;51.244;7.102;2022-12-18T08:18:02;100473.17;;;0.08;71.49
17450;BME280;8842;51.244;7.102;2022-12-18T08:43:55;100431.00;;;0.70;68.11
17450;BME280;8842;51.244;7.102;2022-12-18T08:54:29;100403.55;;;0.89;66.84
17450;BME280;8842;51.244;7.102;2022-12-18T09:04:46;100421.66;;;1.15;66.66
17450;BME280;8842;51.244;7.102;2022-12-18T09:20:14;100393.53;;;1.42;61.64
17450;BME280;8842;51.244;7.102;2022-12-18T09:30:29;100399.30;;;1.55;60.34
17450;BME280;8842;51.244;7.102;2022-12-18T09:40:49;100381.52;;;1.67;61.75
17450;BME280;8842;51.244;7.102;2022-12-18T09:51:10;100376.91;;;1.91;61.03
17450;BME280;8842;51.244;7.102;2022-12-18T10:01:30;100390.98;;;2.03;61.13
17450;BME280;8842;51.244;7.102;2022-12-18T10:11:53;100381.42;;;2.02;61.63
17450;BME280;8842;51.244;7.102;2022-12-18T10:22:16;100361.71;;;1.89;61.72
17450;BME280;8842;51.244;7.102;2022-12-18T10:32:36;100339.02;;;2.04;60.65
17450;BME280;8842;51.244;7.102;2022-12-18T10:43:13;100322.61;;;2.13;60.69
17450;BME280;8842;51.244;7.102;2022-12-18T10:48:21;100320.69;;;2.19;60.93
17450;BME280;8842;51.244;7.102;2022-12-18T10:53:27;100306.35;;;2.31;60.08
17450;BME280;8842;51.244;7.102;2022-12-18T11:03:59;100304.87;;;2.50;61.80
17450;BME280;8842;51.244;7.102;2022-12-18T11:14:17;100294.39;;;2.50;61.82
17450;BME280;8842;51.244;7.102;2022-12-18T11:19:28;100288.42;;;2.59;60.16
17450;BME280;8842;51.244;7.102;2022-12-18T11:29:45;100288.22;;;2.52;60.69
17450;BME280;8842;51.244;7.102;2022-12-18T11:40:09;100277.16;;;2.56;60.69
17450;BME280;8842;51.244;7.102;2022-12-18T11:50:40;100238.50;;;2.49;62.35
17450;BME280;8842;51.244;7.102;2022-12-18T11:55:58;100227.64;;;2.47;62.15
17450;BME280;8842;51.244;7.102;2022-12-18T12:06:22;100224.63;;;2.59;59.76
17450;BME280;8842;51.244;7.102;2022-12-18T12:16:45;100220.97;;;2.77;60.04
17450;BME280;8842;51.244;7.102;2022-12-18T12:27:06;100232.10;;;2.58;61.22
17450;BME280;8842;51.244;7.102;2022-12-18T12:37:34;100216.81;;;2.44;63.01
17450;BME280;8842;51.244;7.102;2022-12-18T12:47:53;100196.76;;;2.16;64.98
17450;BME280;8842;51.244;7.102;2022-12-18T12:58:12;100204.08;;;2.19;66.83
17450;BME280;8842;51.244;7.102;2022-12-18T13:08:34;100203.77;;;2.00;68.26
17450;BME280;8842;51.244;7.102;2022-12-18T13:18:59;100227.10;;;1.80;69.10
17450;BME280;8842;51.244;7.102;2022-12-18T13:24:20;100226.06;;;1.71;71.06
17450;BME280;8842;51.244;7.102;2022-12-18T13:46:23;100208.03;;;1.61;74.36
17450;BME280;8842;51.244;7.102;2022-12-18T13:51:29;100193.95;;;1.50;73.39
17450;BME280;8842;51.244;7.102;2022-12-18T14:01:49;100178.64;;;1.51;73.12
17450;BME280;8842;51.244;7.102;2022-12-18T14:17:18;100152.20;;;1.60;73.65
17450;BME280;8842;51.244;7.102;2022-12-18T14:33:03;100121.52;;;1.65;70.74
17450;BME280;8842;51.244;7.102;2022-12-18T14:48:37;100120.98;;;1.40;71.03
17450;BME280;8842;51.244;7.102;2022-12-18T14:58:57;100112.95;;;1.31;71.58
17450;BME280;8842;51.244;7.102;2022-12-18T15:04:03;100117.45;;;1.26;73.35
17450;BME280;8842;51.244;7.102;2022-12-18T15:19:52;100090.77;;;1.15;72.23
17450;BME280;8842;51.244;7.102;2022-12-18T15:30:23;100092.86;;;1.03;74.78
17450;BME280;8842;51.244;7.102;2022-12-18T15:40:38;100088.67;;;0.97;74.98
17450;BME280;8842;51.244;7.102;2022-12-18T15:50:56;100086.62;;;1.08;75.27
17450;BME280;8842;51.244;7.102;2022-12-18T16:01:21;100079.66;;;1.07;75.91
17450;BME280;8842;51.244;7.102;2022-12-18T16:11:39;100064.22;;;0.84;78.25
17450;BME280;8842;51.244;7.102;2022-12-18T16:21:58;100070.97;;;0.76;79.19
17450;BME280;8842;51.244;7.102;2022-12-18T16:32:15;100068.24;;;0.65;82.98
17450;BME280;8842;51.244;7.102;2022-12-18T16:42:31;100081.20;;;0.53;84.88
17450;BME280;8842;51.244;7.102;2022-12-18T16:47:35;100092.37;;;0.42;86.02
17450;BME280;8842;51.244;7.102;2022-12-18T17:13:36;100049.54;;;0.32;91.85
17450;BME280;8842;51.244;7.102;2022-12-18T17:23:51;100038.97;;;0.36;94.21
17450;BME280;8842;51.244;7.102;2022-12-18T17:34:09;100044.95;;;0.25;94.79
17450;BME280;8842;51.244;7.102;2022-12-18T17:44:28;100049.27;;;0.26;95.35
17450;BME280;8842;51.244;7.102;2022-12-18T17:54:43;100031.53;;;0.05;96.35
17450;BME280;8842;51.244;7.102;2022-12-18T18:04:59;100037.34;;;0.00;96.82
17450;BME280;8842;51.244;7.102;2022-12-18T18:15:18;100059.45;;;0.01;96.85
17450;BME280;8842;51.244;7.102;2022-12-18T18:25:36;100058.45;;;-0.09;96.80
17450;BME280;8842;51.244;7.102;2022-12-18T18:35:53;100048.55;;;-0.14;97.86
17450;BME280;8842;51.244;7.102;2022-12-18T18:46:12;100075.92;;;-0.13;98.16
17450;BME280;8842;51.244;7.102;2022-12-18T18:56:29;100085.45;;;-0.12;98.14
17450;BME280;8842;51.244;7.102;2022-12-18T19:06:46;100082.70;;;-0.23;99.04
17450;BME280;8842;51.244;7.102;2022-12-18T19:11:51;100067.40;;;-0.38;99.64
17450;BME280;8842;51.244;7.102;2022-12-18T19:22:26;100069.22;;;-0.23;98.91
17450;BME280;8842;51.244;7.102;2022-12-18T19:27:30;100076.36;;;-0.13;97.26
17450;BME280;8842;51.244;7.102;2022-12-18T19:37:48;100066.64;;;-0.07;96.47
17450;BME280;8842;51.244;7.102;2022-12-18T19:48:05;100054.02;;;-0.07;96.07
17450;BME280;8842;51.244;7.102;2022-12-18T19:53:10;100059.72;;;-0.08;95.67
17450;BME280;8842;51.244;7.102;2022-12-18T20:03:25;100052.58;;;0.15;93.71
17450;BME280;8842;51.244;7.102;2022-12-18T20:08:29;100053.45;;;0.16;93.07
17450;BME280;8842;51.244;7.102;2022-12-18T20:18:45;100063.55;;;0.45;90.89
17450;BME280;8842;51.244;7.102;2022-12-18T20:23:49;100076.89;;;0.35;90.42
17450;BME280;8842;51.244;7.102;2022-12-18T20:34:05;100066.55;;;0.30;94.27
17450;BME280;8842;51.244;7.102;2022-12-18T20:44:21;100063.23;;;0.25;96.23
17450;BME280;8842;51.244;7.102;2022-12-18T20:54:38;100068.50;;;0.40;99.79
17450;BME280;8842;51.244;7.102;2022-12-18T21:04:53;100068.53;;;0.38;100.00
17450;BME280;8842;51.244;7.102;2022-12-18T21:15:09;100083.73;;;0.56;98.25
17450;BME280;8842;51.244;7.102;2022-12-18T21:25:24;100067.10;;;0.59;96.52
17450;BME280;8842;51.244;7.102;2022-12-18T21:35:41;100058.67;;;0.80;94.24
17450;BME280;8842;51.244;7.102;2022-12-18T21:45:56;100055.84;;;0.87;92.25
17450;BME280;8842;51.244;7.102;2022-12-18T21:56:11;100063.82;;;0.83;97.58
17450;BME280;8842;51.244;7.102;2022-12-18T22:01:15;100067.44;;;0.77;100.00
17450;BME280;8842;51.244;7.102;2022-12-18T22:06:20;100053.00;;;0.64;100.00
17450;BME280;8842;51.244;7.102;2022-12-18T22:11:24;100052.56;;;0.65;100.00
17450;BME280;8842;51.244;7.102;2022-12-18T22:16:28;100043.50;;;0.62;100.00
17450;BME280;8842;51.244;7.102;2022-12-18T22:21:36;100022.72;;;0.57;100.00
17450;BME280;8842;51.244;7.102;2022-12-18T22:26:39;100022.33;;;0.56;100.00
17450;BME280;8842;51.244;7.102;2022-12-18T22:36:55;100006.95;;;0.60;100.00
17450;BME280;8842;51.244;7.102;2022-12-18T22:47:13;99989.88;;;0.63;100.00
17450;BME280;8842;51.244;7.102;2022-12-18T22:57:29;99978.98;;;0.64;100.00
17450;BME280;8842;51.244;7.102;2022-12-18T23:07:44;99977.33;;;0.90;100.00
17450;BME280;8842;51.244;7.102;2022-12-18T23:18:00;99957.03;;;0.84;100.00
17450;BME280;8842;51.244;7.102;2022-12-18T23:23:04;99948.50;;;0.77;100.00
17450;BME280;8842;51.244;7.102;2022-12-18T23:28:08;99945.39;;;0.94;100.00
17450;BME280;8842;51.244;7.102;2022-12-18T23:38:26;99925.51;;;1.16;100.00
17450;BME280;8842;51.244;7.102;2022-12-18T23:48:41;99896.39;;;1.13;100.00
17450;BME280;8842;51.244;7.102;2022-12-18T23:53:45;99905.89;;;1.16;100.00
